Impacts METAR Board
IDs:

KBOS - Boston/Logan Intl, MA, US

Updated at: 2300 UTC 01 Feb 2023
Potential Impact None Slight Moderate High
Time 01/11Z 01/12Z 01/13Z 01/14Z 01/15Z 01/16Z 01/17Z 01/18Z 01/19Z 01/20Z 01/21Z 01/22Z 01/23Z
Temp22 22 21 24 25 28 28 28 29 29 29 28 30
Dewpt2 2 3 8 10 13 14 16 16 15 15 14 5
Altim30.27 30.28 30.30 30.30 30.30 30.28 30.25 30.23 30.21 30.20 30.20 30.21 30.24
VIS10 10 10 10 10 10 10 10 10 10 10 10 10
CIG55 70 -- -- 27 -- -- -- -- -- -- -- --
CoverOVCBKNFEWSCTBKNFEWSCTSCTFEWFEWFEWFEWCLR
FltCatVFRVFRVFRVFRMVFRVFRVFRVFRVFRVFRVFRVFRVFR
WX--------------------------
WDir330340034033010013012013000300
WSpd7 10 4 6 7 4 0 5 7 4 6 0 7
WGst-- -- -- -- -- -- -- -- -- -- -- -- --
Raw hourly METARs
KBOS 011054Z 33007KT 10SM BKN055 OVC070 M06/M17 A3027 RMK AO2 SLP250 T10561167
KBOS 011154Z 34010KT 10SM BKN070 BKN140 M06/M17 A3028 RMK AO2 SLP253 T10561167 11050 21056 53005
KBOS 011254Z VRB04KT 10SM FEW035 FEW075 FEW140 M06/M16 A3030 RMK AO2 SLP258 T10611161
KBOS 011354Z 34006KT 10SM FEW029 SCT070 M04/M13 A3030 RMK AO2 SLP261 T10441133
KBOS 011454Z 33007KT 310V010 10SM BKN027 BKN070 M04/M12 A3030 RMK AO2 SLP258 T10391122 50005
KBOS 011554Z 01004KT 10SM FEW028 M02/M11 A3028 RMK AO2 SLP252 T10221106
KBOS 011654Z 00000KT 10SM SCT033 M02/M10 A3025 RMK AO2 SLP242 T10221100
KBOS 011754Z 13005KT 10SM SCT037 M02/M09 A3023 RMK AO2 SLP235 T10221089 11022 21061 58023
KBOS 011854Z 12007KT 10SM FEW042 M02/M09 A3021 RMK AO2 SLP228 T10171089
KBOS 011954Z 13004KT 10SM FEW045 M02/M09 A3020 RMK AO2 SLP227 T10171094
KBOS 012054Z VRB06KT 10SM FEW045 M02/M09 A3020 RMK AO2 SLP226 T10171094 56009
KBOS 012154Z 00000KT 10SM FEW045 M02/M10 A3021 RMK AO2 SLP229 T10221100
KBOS 012254Z 30007KT 10SM CLR M01/M15 A3024 RMK AO2 SLP238 T10111150



Page loaded:  23:16 UTC  |   03:16 PM Pacific  |   04:16 PM Mountain  |   05:16 PM Central  |   06:16 PM Eastern

 

ADVISORIES

FORECASTS

FORECASTS

OBSERVATIONS

USER TOOLS

ABOUT US